Time;durP1;ratioP1;P1;durP2;ratioP2;P2;SDS_P1;SDS_P2;PMS_P1;PMS_P2;Temp;Humidity;BMP_temperature;BMP_pressure;BME280_temperature;BME280_humidity;BME280_pressure;Samples;Min_cycle;Max_cycle;Signal;HPM_P1;HPM_P2
2022/06/22 00:01:56;;;;;;;1.90;0.90;;;;;;;13.84;61.76;97965.58;108395;1285;137897;-55
2022/06/22 00:04:32;;;;;;;2.90;0.90;;;;;;;13.84;61.83;97964.73;108352;1285;22664;-55
2022/06/22 00:07:03;;;;;;;1.80;1.10;;;;;;;13.84;61.88;97957.02;108402;1286;23151;-56
2022/06/22 00:09:32;;;;;;;2.30;1.00;;;;;;;13.86;61.83;97955.88;108258;1284;140558;-55
2022/06/22 00:11:59;;;;;;;1.00;0.80;;;;;;;13.85;61.82;97944.52;108363;1286;22447;-56
2022/06/22 00:14:41;;;;;;;1.10;0.90;;;;;;;13.84;61.88;97940.95;108121;1286;137667;-56
2022/06/22 00:17:35;;;;;;;3.00;1.00;;;;;;;13.83;61.95;97936.05;108189;1286;23334;-55
2022/06/22 00:20:25;;;;;;;1.20;0.90;;;;;;;13.81;62.10;97935.59;108325;1285;137899;-55
2022/06/22 00:23:12;;;;;;;1.60;1.00;;;;;;;13.80;61.88;97928.11;108204;1285;22410;-54
2022/06/22 00:25:39;;;;;;;1.50;1.30;;;;;;;13.78;62.03;97921.49;108083;1286;138755;-54
2022/06/22 00:28:29;;;;;;;3.30;1.80;;;;;;;13.74;62.00;97918.13;108387;1286;22526;-54
2022/06/22 00:31:21;;;;;;;4.40;2.30;;;;;;;13.70;62.10;97911.48;108489;1285;22231;-54
2022/06/22 00:34:10;;;;;;;6.10;2.20;;;;;;;13.65;62.28;97909.38;108355;1286;23387;-54
2022/06/22 00:36:55;;;;;;;8.00;2.80;;;;;;;13.62;62.58;97910.02;105931;1285;23282;-53
2022/06/22 00:39:22;;;;;;;7.40;2.60;;;;;;;13.59;62.88;97904.36;104109;1287;137863;-54
2022/06/22 00:41:56;;;;;;;7.50;2.40;;;;;;;13.56;62.94;97902.45;104373;1287;22736;-54
2022/06/22 00:44:23;;;;;;;5.10;2.40;;;;;;;13.54;63.06;97904.08;104302;1287;138217;-54
2022/06/22 00:46:58;;;;;;;4.50;2.10;;;;;;;13.52;63.39;97900.85;104317;1285;22767;-54
2022/06/22 00:49:25;;;;;;;5.90;2.30;;;;;;;13.50;63.42;97898.93;104011;1287;137867;-54
2022/06/22 00:51:52;;;;;;;3.30;1.70;;;;;;;13.45;63.42;97900.02;104013;1286;26147;-55
2022/06/22 00:54:25;;;;;;;1.30;0.80;;;;;;;13.42;63.84;97898.25;103997;1286;22578;-54
2022/06/22 00:57:12;;;;;;;1.90;1.30;;;;;;;13.37;63.92;97891.70;103737;1287;140285;-54
2022/06/22 00:59:48;;;;;;;2.80;1.10;;;;;;;13.33;64.20;97891.65;104058;1287;25345;-54
2022/06/22 01:02:40;;;;;;;1.80;0.80;;;;;;;13.31;64.41;97888.65;103892;1286;138698;-54
2022/06/22 01:05:10;;;;;;;1.90;1.10;;;;;;;13.29;64.49;97887.52;104034;1287;22554;-54
2022/06/22 01:07:58;;;;;;;4.10;1.20;;;;;;;13.28;64.86;97884.00;103989;1286;139063;-53
2022/06/22 01:10:40;;;;;;;5.00;1.80;;;;;;;13.27;65.04;97882.36;104618;1280;22751;-53
2022/06/22 01:13:41;;;;;;;3.60;1.00;;;;;;;13.28;65.02;97881.52;104875;1283;26629;-55
2022/06/22 01:16:10;;;;;;;1.40;0.80;;;;;;;13.28;65.32;97878.84;104748;1283;22605;-53
2022/06/22 01:18:44;;;;;;;2.90;0.70;;;;;;;13.27;65.63;97876.02;108672;1281;22475;-54
2022/06/22 01:21:27;;;;;;;1.70;0.90;;;;;;;13.28;65.75;97873.52;108765;1280;138705;-54
2022/06/22 01:23:54;;;;;;;1.60;0.80;;;;;;;13.28;65.82;97871.93;108841;1280;22500;-54
2022/06/22 01:26:58;;;;;;;1.20;0.90;;;;;;;13.26;65.72;97863.98;108938;1279;140179;-54
2022/06/22 01:29:25;;;;;;;2.40;1.10;;;;;;;13.24;65.86;97864.02;109025;1279;22891;-54
2022/06/22 01:32:05;;;;;;;4.40;1.90;;;;;;;13.22;65.95;97857.19;108776;1280;138471;-54
2022/06/22 01:34:35;;;;;;;4.00;1.60;;;;;;;13.19;66.19;97856.71;109059;1279;22259;-54
2022/06/22 01:37:03;;;;;;;5.60;2.40;;;;;;;13.18;66.38;97856.70;108864;1280;22561;-54
2022/06/22 01:39:30;;;;;;;7.10;2.70;;;;;;;13.16;66.38;97853.90;108735;1280;136962;-54
2022/06/22 01:42:03;;;;;;;4.90;1.80;;;;;;;13.16;66.40;97850.04;109092;1280;23215;-54
2022/06/22 01:44:33;;;;;;;4.20;1.80;;;;;;;13.13;66.77;97850.91;108661;1278;138685;-54
2022/06/22 01:47:43;;;;;;;4.00;1.60;;;;;;;13.09;66.89;97847.84;109101;1279;22492;-54
2022/06/22 01:50:18;;;;;;;3.10;1.30;;;;;;;13.08;67.01;97850.27;108085;1286;138748;-54
2022/06/22 01:53:19;;;;;;;2.40;1.10;;;;;;;13.07;67.27;97851.71;108104;1287;22623;-54
2022/06/22 01:55:48;;;;;;;1.00;0.80;;;;;;;13.06;67.54;97847.85;107916;1286;138563;-54
2022/06/22 01:58:15;;;;;;;1.70;1.00;;;;;;;13.06;67.67;97849.33;108102;1287;22508;-54
2022/06/22 02:00:42;;;;;;;1.70;0.90;;;;;;;13.07;67.79;97849.52;108127;1288;22609;-54
2022/06/22 02:03:15;;;;;;;3.00;0.90;;;;;;;13.08;67.60;97848.95;107974;1287;138809;-54
2022/06/22 02:05:59;;;;;;;0.80;0.70;;;;;;;13.08;67.77;97844.14;108128;1287;23348;-54
2022/06/22 02:08:30;;;;;;;0.90;0.80;;;;;;;13.10;67.89;97848.20;108181;1283;138825;-55
2022/06/22 02:11:08;;;;;;;1.20;0.70;;;;;;;13.10;67.90;97849.23;108031;1287;23190;-54
2022/06/22 02:13:51;;;;;;;0.70;0.70;;;;;;;13.14;68.05;97851.33;107987;1286;138598;-54
2022/06/22 02:16:24;;;;;;;2.30;0.80;;;;;;;13.17;68.46;97853.06;108233;1286;23608;-54
2022/06/22 02:18:58;;;;;;;0.80;0.80;;;;;;;13.19;68.36;97850.38;108158;1286;23621;-54
2022/06/22 02:21:26;;;;;;;1.20;0.90;;;;;;;13.21;68.31;97850.23;108038;1286;138207;-54
2022/06/22 02:23:57;;;;;;;1.70;0.90;;;;;;;13.22;68.38;97848.95;108324;1286;22653;-54
2022/06/22 02:26:46;;;;;;;2.20;0.80;;;;;;;13.22;68.30;97850.78;108692;1277;139005;-54
2022/06/22 02:29:13;;;;;;;0.50;0.50;;;;;;;13.24;68.26;97852.11;109145;1280;23311;-54
2022/06/22 02:31:40;;;;;;;2.80;0.80;;;;;;;13.24;68.50;97851.73;109148;1276;138460;-54
2022/06/22 02:34:07;;;;;;;2.10;0.90;;;;;;;13.25;68.51;97850.22;109025;1280;22616;-53
2022/06/22 02:36:39;;;;;;;7.10;1.10;;;;;;;13.24;68.42;97849.60;109102;1278;22878;-54
2022/06/22 02:39:06;;;;;;;4.40;1.10;;;;;;;13.23;68.48;97845.96;109043;1277;139402;-55
2022/06/22 02:44:30;;;;;;;1.90;1.10;;;;;;;13.23;68.84;97844.02;109025;1277;138127;-54
2022/06/22 02:47:22;;;;;;;2.50;1.40;;;;;;;13.24;68.85;97847.09;109167;1277;22527;-54
2022/06/22 02:49:58;;;;;;;5.70;1.20;;;;;;;13.24;68.98;97851.28;108929;1279;139372;-54
2022/06/22 02:52:30;;;;;;;1.90;1.10;;;;;;;13.26;69.23;97854.86;109088;1278;22464;-55
2022/06/22 02:54:57;;;;;;;1.90;1.00;;;;;;;13.27;69.08;97855.77;109181;1277;22359;-54
2022/06/22 02:57:27;;;;;;;2.00;0.80;;;;;;;13.25;69.29;97857.71;108784;1278;138565;-54
2022/06/22 02:59:53;;;;;;;0.90;0.70;;;;;;;13.25;69.35;97855.21;109100;1278;23298;-55
2022/06/22 03:02:21;;;;;;;4.60;0.80;;;;;;;13.24;69.27;97851.50;109067;1277;139385;-55
2022/06/22 03:04:48;;;;;;;3.80;1.00;;;;;;;13.26;69.69;97849.80;109231;1277;22535;-55
2022/06/22 03:07:15;;;;;;;2.50;0.90;;;;;;;13.29;69.62;97846.55;109151;1277;139110;-59
2022/06/22 03:09:42;;;;;;;0.80;0.80;;;;;;;13.30;69.57;97852.38;109083;1277;23157;-55
2022/06/22 03:12:10;;;;;;;0.80;0.60;;;;;;;13.30;69.77;97848.55;109123;1277;22826;-55
2022/06/22 03:14:42;;;;;;;1.30;0.80;;;;;;;13.31;70.08;97849.97;108924;1277;138389;-55
2022/06/22 03:17:17;;;;;;;3.30;0.90;;;;;;;13.32;70.11;97853.19;109104;1280;22472;-55
2022/06/22 03:19:59;;;;;;;0.90;0.70;;;;;;;13.31;69.93;97851.64;109025;1277;138743;-55
2022/06/22 03:22:51;;;;;;;1.80;0.80;;;;;;;13.31;70.09;97847.36;108974;1278;22421;-55
2022/06/22 03:25:29;;;;;;;0.70;0.70;;;;;;;13.33;70.08;97845.38;109153;1277;139066;-55
2022/06/22 03:28:02;;;;;;;1.00;0.80;;;;;;;13.35;70.09;97845.67;109101;1277;22464;-55
2022/06/22 03:30:35;;;;;;;1.10;0.70;;;;;;;13.35;70.01;97845.06;108959;1279;22324;-54
2022/06/22 03:33:05;;;;;;;2.60;0.90;;;;;;;13.37;70.21;97845.88;109041;1277;138722;-55
2022/06/22 03:35:47;;;;;;;0.80;0.80;;;;;;;13.40;70.32;97851.05;109017;1280;22888;-55
2022/06/22 03:38:19;;;;;;;1.50;0.70;;;;;;;13.43;70.09;97850.77;109150;1277;138281;-55
2022/06/22 03:40:48;;;;;;;1.10;0.70;;;;;;;13.45;70.16;97851.49;108979;1280;24443;-55
2022/06/22 03:43:18;;;;;;;2.80;1.30;;;;;;;13.45;70.11;97849.92;108807;1279;22500;-54
2022/06/22 03:45:47;;;;;;;2.60;1.20;;;;;;;13.48;70.29;97852.17;107980;1280;25781;-54
2022/06/22 03:48:24;;;;;;;5.20;1.10;;;;;;;13.48;70.26;97853.56;104753;1280;22608;-54
2022/06/22 03:50:54;;;;;;;2.50;1.40;;;;;;;13.45;70.05;97859.05;108968;1279;137698;-55
2022/06/22 03:53:32;;;;;;;2.00;1.10;;;;;;;13.43;70.34;97860.04;109125;1280;22491;-55
2022/06/22 03:56:03;;;;;;;1.40;1.00;;;;;;;13.41;70.28;97857.94;108967;1279;139543;-54
2022/06/22 03:58:29;;;;;;;7.20;0.90;;;;;;;13.38;70.24;97858.50;109023;1278;22540;-54
2022/06/22 04:00:56;;;;;;;3.00;0.80;;;;;;;13.34;70.32;97859.41;108868;1279;22547;-54
2022/06/22 04:03:23;;;;;;;1.50;1.10;;;;;;;13.32;70.27;97860.24;108876;1278;140082;-54
2022/06/22 04:05:53;;;;;;;2.10;1.20;;;;;;;13.30;70.51;97858.00;108927;1279;22426;-55
2022/06/22 04:08:40;;;;;;;1.90;1.00;;;;;;;13.28;70.84;97853.33;108894;1279;138589;-54
2022/06/22 04:11:25;;;;;;;6.70;1.00;;;;;;;13.28;70.86;97857.39;109020;1280;22404;-54
2022/06/22 04:14:24;;;;;;;3.60;1.50;;;;;;;13.28;70.92;97860.66;108765;1280;141584;-54
2022/06/22 04:16:58;;;;;;;2.10;1.00;;;;;;;13.30;71.29;97866.60;109187;1278;22454;-55
2022/06/22 04:19:40;;;;;;;1.20;1.10;;;;;;;13.32;71.50;97864.39;108992;1277;139197;-55
2022/06/22 04:22:21;;;;;;;2.70;1.00;;;;;;;13.37;71.48;97863.23;108848;1278;22412;-55
2022/06/22 04:25:00;;;;;;;1.40;1.00;;;;;;;13.41;71.00;97861.86;108806;1279;22510;-54
2022/06/22 04:27:38;;;;;;;1.60;0.90;;;;;;;13.40;71.04;97857.14;104631;1280;138909;-54
2022/06/22 04:30:16;;;;;;;0.60;0.50;;;;;;;13.38;70.71;97861.89;104562;1280;22621;-54
2022/06/22 04:32:50;;;;;;;2.50;0.80;;;;;;;13.36;70.67;97866.22;108949;1280;138357;-54
2022/06/22 04:36:07;;;;;;;1.80;1.20;;;;;;;13.27;70.46;97866.08;108857;1280;22703;-55
2022/06/22 04:38:51;;;;;;;1.20;1.00;;;;;;;13.08;70.81;97861.70;108404;1283;138417;-54
2022/06/22 04:41:33;;;;;;;1.80;0.90;;;;;;;13.02;70.69;97866.67;108343;1283;23416;-55
2022/06/22 04:44:05;;;;;;;3.60;1.00;;;;;;;12.95;70.94;97872.15;108327;1284;138703;-54
2022/06/22 04:46:34;;;;;;;3.70;0.90;;;;;;;12.94;71.13;97878.32;108435;1284;22692;-54
2022/06/22 04:49:04;;;;;;;4.10;0.80;;;;;;;12.94;71.20;97883.14;108341;1283;23280;-54
2022/06/22 04:51:33;;;;;;;1.40;1.10;;;;;;;12.96;71.29;97885.27;108311;1283;139025;-54
2022/06/22 04:54:18;;;;;;;1.70;1.10;;;;;;;12.98;71.52;97887.98;108434;1283;22460;-55
2022/06/22 04:56:47;;;;;;;1.40;0.80;;;;;;;13.03;71.02;97886.33;105538;1283;139643;-54
2022/06/22 04:59:14;;;;;;;1.60;1.00;;;;;;;13.02;71.00;97885.75;108576;1283;22416;-54
2022/06/22 05:01:48;;;;;;;2.50;1.40;;;;;;;13.04;70.71;97888.86;108156;1286;138753;-55
2022/06/22 05:04:24;;;;;;;3.00;1.40;;;;;;;13.05;71.07;97890.37;108483;1283;22531;-55
2022/06/22 05:07:03;;;;;;;3.10;0.90;;;;;;;13.07;70.83;97895.73;108510;1282;22564;-55
2022/06/22 05:10:00;;;;;;;2.60;1.30;;;;;;;13.06;71.22;97895.55;108293;1283;138073;-55
2022/06/22 05:12:27;;;;;;;1.30;0.90;;;;;;;13.05;71.35;97893.42;107957;1284;22458;-55
2022/06/22 05:14:56;;;;;;;1.70;0.80;;;;;;;13.08;71.06;97889.14;108118;1284;138592;-55
2022/06/22 05:17:32;;;;;;;2.40;1.00;;;;;;;13.11;70.70;97885.75;108181;1285;22469;-55
2022/06/22 05:20:25;;;;;;;2.20;0.90;;;;;;;13.14;70.78;97886.43;108157;1286;139373;-55
2022/06/22 05:22:53;;;;;;;1.90;1.00;;;;;;;13.19;70.82;97888.12;108416;1284;22588;-55
2022/06/22 05:25:19;;;;;;;1.50;0.90;;;;;;;13.24;71.07;97891.11;108143;1285;139014;-56
2022/06/22 05:27:50;;;;;;;2.90;1.00;;;;;;;13.30;70.59;97893.79;108453;1284;22566;-55
2022/06/22 05:30:17;;;;;;;3.70;1.20;;;;;;;13.31;70.25;97891.50;108379;1284;22431;-55
2022/06/22 05:32:47;;;;;;;3.70;1.20;;;;;;;13.29;70.23;97889.86;108312;1283;138968;-55
2022/06/22 05:35:23;;;;;;;1.30;1.20;;;;;;;13.29;70.17;97883.61;108188;1285;22429;-55
2022/06/22 05:37:51;;;;;;;2.40;1.40;;;;;;;13.33;70.47;97883.47;108149;1285;138304;-55
2022/06/22 05:40:19;;;;;;;1.60;1.10;;;;;;;13.36;70.36;97883.05;107495;1285;22560;-55
2022/06/22 05:42:46;;;;;;;1.50;1.00;;;;;;;13.33;70.05;97878.66;106318;1286;23073;-56
2022/06/22 05:45:15;;;;;;;1.30;1.10;;;;;;;13.32;70.13;97883.92;106311;1284;139807;-56
2022/06/22 05:47:42;;;;;;;2.80;1.20;;;;;;;13.31;70.18;97887.31;106520;1283;22648;-56
2022/06/22 05:50:18;;;;;;;11.00;1.60;;;;;;;13.35;70.02;97886.74;106764;1278;139863;-55
2022/06/22 05:52:47;;;;;;;4.70;1.20;;;;;;;13.40;69.86;97883.45;107037;1278;23810;-56
2022/06/22 05:55:42;;;;;;;5.20;1.40;;;;;;;13.45;69.85;97883.23;107010;1280;22535;-56
2022/06/22 05:58:30;;;;;;;4.80;1.40;;;;;;;13.52;69.73;97885.42;107019;1279;22426;-55
2022/06/22 06:00:57;;;;;;;2.10;1.60;;;;;;;13.57;69.67;97886.40;107005;1280;22597;-55
2022/06/22 06:03:32;;;;;;;9.70;1.50;;;;;;;13.58;69.21;97891.13;106921;1278;138925;-55
2022/06/22 06:06:06;;;;;;;2.40;1.10;;;;;;;13.53;69.05;97892.70;106978;1277;23290;-56
2022/06/22 06:08:57;;;;;;;3.20;1.20;;;;;;;13.49;68.86;97893.91;106883;1277;139430;-55
2022/06/22 06:11:27;;;;;;;1.10;1.00;;;;;;;13.42;68.87;97890.69;107231;1277;22525;-56
2022/06/22 06:13:59;;;;;;;9.20;1.60;;;;;;;13.39;68.85;97894.03;107021;1277;139642;-55
2022/06/22 06:16:27;;;;;;;8.90;2.30;;;;;;;13.36;68.93;97896.56;107281;1277;22441;-55
2022/06/22 06:18:56;;;;;;;3.90;1.70;;;;;;;13.31;69.10;97897.85;107075;1278;22471;-55
2022/06/22 06:21:23;;;;;;;2.60;1.50;;;;;;;13.26;69.46;97905.59;108279;1277;139250;-55
2022/06/22 06:23:52;;;;;;;2.50;1.40;;;;;;;13.19;69.88;97898.67;109269;1277;22462;-55
2022/06/22 06:29:11;;;;;;;4.60;1.60;;;;;;;13.13;70.74;97902.29;109134;1277;22510;-55
2022/06/22 06:31:49;;;;;;;5.90;1.60;;;;;;;13.14;70.57;97899.21;108967;1280;139293;-55
2022/06/22 06:34:18;;;;;;;4.30;1.60;;;;;;;13.16;70.71;97899.84;108977;1281;22527;-56
2022/06/22 06:37:06;;;;;;;6.90;1.70;;;;;;;13.19;70.90;97901.52;108979;1280;22532;-56
2022/06/22 06:39:34;;;;;;;3.80;1.50;;;;;;;13.25;70.77;97895.77;108656;1280;138402;-56
2022/06/22 06:42:34;;;;;;;6.60;1.70;;;;;;;13.32;70.07;97904.29;109022;1278;23221;-55
2022/06/22 06:45:01;;;;;;;4.70;1.90;;;;;;;13.37;70.01;97909.41;108849;1281;139708;-56
2022/06/22 06:47:36;;;;;;;2.30;1.40;;;;;;;13.44;70.04;97909.84;109243;1276;22529;-55
2022/06/22 06:50:23;;;;;;;2.40;1.30;;;;;;;13.55;70.42;97912.89;109196;1277;139537;-56
2022/06/22 06:53:11;;;;;;;3.70;2.20;;;;;;;13.67;70.40;97911.61;109132;1277;22220;-56
2022/06/22 06:55:50;;;;;;;6.30;1.20;;;;;;;13.78;70.71;97917.15;109011;1277;139370;-55
2022/06/22 06:58:23;;;;;;;6.10;1.40;;;;;;;13.84;70.70;97917.17;108907;1278;22459;-56
2022/06/22 07:00:49;;;;;;;3.70;1.40;;;;;;;13.89;69.95;97925.55;109096;1277;22571;-55
2022/06/22 07:03:31;;;;;;;1.20;1.10;;;;;;;13.88;68.91;97922.67;108668;1277;138748;-55
2022/06/22 07:05:58;;;;;;;3.80;1.10;;;;;;;13.83;68.17;97924.55;108961;1280;23268;-56
2022/06/22 07:08:31;;;;;;;3.20;1.30;;;;;;;13.78;68.13;97923.45;108881;1277;138001;-55
2022/06/22 07:11:13;;;;;;;1.20;1.00;;;;;;;13.75;68.39;97925.02;108773;1280;22288;-55
2022/06/22 07:13:45;;;;;;;1.10;1.00;;;;;;;13.75;68.22;97929.66;109140;1277;138561;-56
2022/06/22 07:16:14;;;;;;;2.30;1.10;;;;;;;13.75;68.41;97928.56;109100;1278;22607;-56
2022/06/22 07:18:43;;;;;;;3.30;1.10;;;;;;;13.78;68.66;97928.38;109001;1280;23737;-56
2022/06/22 07:21:15;;;;;;;2.70;1.10;;;;;;;13.77;68.07;97932.45;108975;1277;139266;-55
2022/06/22 07:24:04;;;;;;;3.80;1.00;;;;;;;13.79;68.24;97932.80;109096;1277;22273;-56
2022/06/22 07:26:39;;;;;;;3.00;1.10;;;;;;;13.84;67.71;97934.36;108817;1278;138481;-55
2022/06/22 07:29:16;;;;;;;1.80;1.40;;;;;;;13.88;67.76;97934.07;109103;1277;23238;-56
2022/06/22 07:31:47;;;;;;;1.40;1.20;;;;;;;13.92;67.33;97931.55;109083;1277;139114;-56
2022/06/22 07:34:27;;;;;;;2.80;1.30;;;;;;;13.92;67.08;97928.90;108762;1281;22704;-56
2022/06/22 07:36:56;;;;;;;1.70;1.30;;;;;;;13.96;67.00;97931.34;108989;1278;22669;-56
2022/06/22 07:39:35;;;;;;;2.00;1.30;;;;;;;13.98;66.67;97931.42;108867;1279;137842;-56
2022/06/22 07:42:02;;;;;;;3.50;1.40;;;;;;;14.03;66.87;97934.11;109116;1278;22532;-56
2022/06/22 07:44:30;;;;;;;6.70;1.40;;;;;;;14.09;66.89;97933.62;108970;1277;138721;-56
2022/06/22 07:47:24;;;;;;;2.10;1.30;;;;;;;14.14;66.43;97941.16;109084;1277;22437;-56
2022/06/22 07:49:57;;;;;;;3.70;1.60;;;;;;;14.21;65.46;97939.05;108656;1277;137928;-56
2022/06/22 07:52:27;;;;;;;2.50;1.50;;;;;;;14.29;64.97;97942.11;109104;1277;22515;-56
2022/06/22 07:55:32;;;;;;;5.10;1.40;;;;;;;14.35;64.18;97939.77;108908;1281;23667;-56
2022/06/22 07:58:09;;;;;;;3.80;1.50;;;;;;;14.40;63.93;97946.45;109256;1277;22458;-56
2022/06/22 08:00:36;;;;;;;2.40;1.50;;;;;;;14.44;63.87;97948.90;109238;1277;23232;-56
2022/06/22 08:03:10;;;;;;;2.30;1.60;;;;;;;14.49;63.50;97946.70;108906;1277;137887;-56
2022/06/22 08:05:39;;;;;;;1.80;1.40;;;;;;;14.57;63.59;97948.45;106409;1279;23662;-56
2022/06/22 08:08:09;;;;;;;2.70;1.50;;;;;;;14.62;63.39;97953.80;103826;1277;137359;-56
2022/06/22 08:10:45;;;;;;;1.50;1.30;;;;;;;14.68;63.74;97953.68;103817;1278;22771;-56
2022/06/22 08:13:22;;;;;;;2.80;1.60;;;;;;;14.73;63.52;97950.99;107069;1278;24183;-56
2022/06/22 08:15:59;;;;;;;5.50;1.40;;;;;;;14.82;64.04;97953.54;106983;1278;22414;-56
2022/06/22 08:18:27;;;;;;;3.60;1.30;;;;;;;14.94;64.20;97947.34;107095;1277;22453;-57
2022/06/22 08:20:53;;;;;;;3.20;1.80;;;;;;;15.10;63.78;97947.02;106896;1277;139687;-56
2022/06/22 08:23:22;;;;;;;2.50;1.90;;;;;;;15.25;62.90;97940.36;107132;1277;22571;-57
2022/06/22 08:25:59;;;;;;;2.30;1.20;;;;;;;15.39;62.85;97936.96;106837;1277;138156;-56
2022/06/22 08:28:26;;;;;;;5.20;1.80;;;;;;;15.52;62.37;97938.90;107210;1277;22942;-56
2022/06/22 08:30:54;;;;;;;4.30;2.60;;;;;;;15.67;62.11;97940.73;107066;1277;23582;-60
2022/06/22 08:34:05;;;;;;;1.40;1.20;;;;;;;15.82;61.17;97936.23;106816;1280;137920;-60
2022/06/22 08:37:10;;;;;;;2.00;1.40;;;;;;;16.01;57.93;97937.16;106339;1287;22496;-60
2022/06/22 08:40:00;;;;;;;2.30;1.10;;;;;;;16.12;58.63;97939.59;105553;1290;139842;-59
2022/06/22 08:42:44;;;;;;;1.40;1.00;;;;;;;16.26;58.54;97938.79;105472;1294;22504;-59
2022/06/22 08:45:38;;;;;;;2.10;1.30;;;;;;;16.38;58.58;97938.13;105385;1292;138596;-60
2022/06/22 08:48:49;;;;;;;2.00;1.00;;;;;;;16.45;57.93;97948.31;105601;1292;22445;-57
2022/06/22 08:51:32;;;;;;;4.40;1.50;;;;;;;16.46;58.12;97948.82;104947;1297;140167;-58
2022/06/22 08:54:17;;;;;;;10.50;7.40;;;;;;;16.47;57.53;97948.36;105125;1297;23543;-60
2022/06/22 08:56:54;;;;;;;2.70;1.00;;;;;;;16.53;55.57;97952.23;104963;1297;139257;-60
2022/06/22 08:59:26;;;;;;;;;;;;;;;16.55;56.06;97953.56;105017;1297;23601;-60
2022/06/22 09:02:06;;;;;;;1.50;1.00;;;;;;;16.58;56.91;97951.08;104949;1297;125338;-60
2022/06/22 09:04:56;;;;;;;1.70;1.00;;;;;;;16.64;55.69;97954.60;105069;1297;22827;-60
2022/06/22 09:07:40;;;;;;;3.20;1.00;;;;;;;16.69;54.46;97957.88;104978;1298;138096;-60
2022/06/22 09:10:37;;;;;;;1.20;1.10;;;;;;;16.72;53.81;97960.96;105085;1298;22421;-61
2022/06/22 09:13:15;;;;;;;42.70;23.70;;;;;;;16.77;53.39;97962.48;105382;1290;22448;-58
2022/06/22 09:16:00;;;;;;;7.90;2.70;;;;;;;16.81;53.46;97969.48;106272;1286;22576;-59
2022/06/22 09:18:49;;;;;;;3.00;0.90;;;;;;;16.86;53.12;97970.33;106221;1286;22425;-60
2022/06/22 09:21:48;;;;;;;6.80;1.30;;;;;;;16.88;53.74;97966.21;106260;1284;138523;-59
2022/06/22 09:24:23;;;;;;;2.30;1.00;;;;;;;16.93;54.31;97963.10;106345;1284;23927;-59
2022/06/22 09:27:17;;;;;;;2.80;0.80;;;;;;;17.00;54.78;97962.33;106017;1286;139892;-59
2022/06/22 09:30:12;;;;;;;1.00;0.80;;;;;;;17.14;54.00;97959.45;106910;1277;25570;-60
2022/06/22 09:32:54;;;;;;;13.60;2.20;;;;;;;17.18;53.05;97960.23;106880;1277;137807;-59
2022/06/22 09:35:21;;;;;;;18.40;2.20;;;;;;;17.20;53.52;97957.77;107061;1277;22511;-59
2022/06/22 09:38:16;;;;;;;4.90;1.30;;;;;;;17.23;53.17;97964.16;106903;1277;140276;-59
2022/06/22 09:40:45;;;;;;;2.50;1.40;;;;;;;17.19;52.73;97965.11;107140;1277;22502;-62
2022/06/22 09:43:23;;;;;;;225.30;151.60;;;;;;;17.13;54.14;97970.65;107138;1277;23109;-62
2022/06/22 09:46:11;;;;;;;17.10;5.50;;;;;;;17.07;56.59;97976.80;106251;1277;25250;-60
2022/06/22 09:48:55;;;;;;;50.40;7.00;;;;;;;16.93;57.31;97982.50;103844;1277;22619;-60
2022/06/22 09:51:59;;;;;;;23.20;3.10;;;;;;;16.74;57.82;97982.52;103872;1274;138700;-60
2022/06/22 09:58:00;;;;;;;6.00;1.60;;;;;;;16.52;59.62;97975.44;103799;1274;138832;-60
2022/06/22 10:00:45;;;;;;;9.10;1.70;;;;;;;16.53;59.19;97970.39;103913;1274;22835;-61
2022/06/22 10:03:53;;;;;;;16.30;6.80;;;;;;;16.61;58.93;97969.20;103792;1277;138705;-61
2022/06/22 10:07:03;;;;;;;2.70;1.40;;;;;;;16.77;59.01;97972.23;103194;1284;27419;-61
2022/06/22 10:09:53;;;;;;;4.20;1.30;;;;;;;16.89;57.66;97975.14;103051;1284;139417;-61
2022/06/22 10:12:49;;;;;;;6.90;2.00;;;;;;;17.00;56.75;97975.15;103048;1285;22607;-61
2022/06/22 10:15:39;;;;;;;4.00;1.60;;;;;;;17.10;56.64;97978.90;103173;1284;138879;-60
2022/06/22 10:18:32;;;;;;;6.80;2.00;;;;;;;17.21;56.35;97982.33;103207;1285;23985;-61
2022/06/22 10:21:22;;;;;;;9.00;1.60;;;;;;;17.32;56.61;97975.41;103191;1284;139169;-60
2022/06/22 10:24:04;;;;;;;1.60;1.40;;;;;;;17.46;55.19;97975.59;103168;1285;22674;-60
2022/06/22 10:26:59;;;;;;;2.80;1.30;;;;;;;17.57;54.65;97975.60;103148;1284;139069;-60
2022/06/22 10:29:34;;;;;;;189.30;147.50;;;;;;;17.63;53.69;97972.81;103062;1283;23528;-62
2022/06/22 10:32:10;;;;;;;7.20;5.40;;;;;;;17.63;52.05;97967.39;103035;1284;140858;-61
2022/06/22 10:35:15;;;;;;;5.10;2.10;;;;;;;17.65;52.52;97970.86;103071;1283;25775;-59
2022/06/22 10:37:47;;;;;;;1.30;1.10;;;;;;;17.71;51.94;97981.83;103443;1274;138040;-60
2022/06/22 10:47:09;;;;;;;9.70;4.10;;;;;;;17.39;56.22;98020.49;103408;1282;22685;-59
2022/06/22 10:49:48;;;;;;;6.10;3.60;;;;;;;17.14;57.19;98025.55;103288;1281;139419;-59
2022/06/22 10:52:42;;;;;;;4.60;1.70;;;;;;;16.96;59.32;98023.41;103247;1284;22726;-59
2022/06/22 10:55:47;;;;;;;10.40;2.80;;;;;;;16.84;60.76;98018.82;103144;1283;27920;-58
2022/06/22 10:58:14;;;;;;;4.30;2.00;;;;;;;16.79;62.71;98017.42;103150;1283;22562;-60
2022/06/22 11:00:54;;;;;;;8.10;2.70;;;;;;;16.80;63.44;98020.85;103192;1283;22572;-59
2022/06/22 11:03:39;;;;;;;51.20;22.50;;;;;;;16.84;64.27;98022.96;103108;1282;138735;-59
2022/06/22 11:06:15;;;;;;;7.00;3.90;;;;;;;16.91;65.44;98025.80;103320;1281;22619;-60
2022/06/22 11:09:03;;;;;;;6.90;2.00;;;;;;;16.94;65.05;98025.23;103062;1282;138107;-59
2022/06/22 11:11:46;;;;;;;8.10;3.30;;;;;;;16.85;63.14;98026.77;103394;1283;26070;-59
2022/06/22 11:14:27;;;;;;;80.60;53.20;;;;;;;16.79;63.24;98024.87;103093;1282;141220;-59
2022/06/22 11:17:13;;;;;;;7.20;2.60;;;;;;;16.75;63.26;98028.35;102973;1283;22615;-59
2022/06/22 11:19:49;;;;;;;6.80;3.80;;;;;;;16.70;60.88;98032.98;103081;1283;140168;-59
2022/06/22 11:22:25;;;;;;;2.80;1.10;;;;;;;16.61;57.59;98033.70;103853;1274;25340;-59
2022/06/22 11:25:17;;;;;;;3.00;1.20;;;;;;;16.61;55.96;98035.58;103833;1274;22596;-59
2022/06/22 11:30:58;;;;;;;4.90;0.90;;;;;;;16.93;52.07;98038.33;103803;1275;23319;-59
2022/06/22 11:33:50;;;;;;;6.60;2.10;;;;;;;17.10;50.97;98036.11;103461;1276;137751;-59
2022/06/22 11:36:39;;;;;;;1.40;0.70;;;;;;;17.24;50.82;98032.55;103825;1277;23026;-59
2022/06/22 11:39:42;;;;;;;0.90;0.70;;;;;;;17.40;50.45;98032.48;103695;1275;137849;-59
2022/06/22 11:42:53;;;;;;;5.40;2.40;;;;;;;17.54;50.56;98031.03;103754;1274;25221;-58
2022/06/22 11:45:51;;;;;;;1.60;0.80;;;;;;;17.69;50.23;98029.45;103268;1281;137641;-58
2022/06/22 11:48:46;;;;;;;1.80;0.70;;;;;;;17.80;47.34;98037.30;103380;1281;22581;-58
2022/06/22 11:51:41;;;;;;;1.30;0.80;;;;;;;17.85;47.49;98035.83;103236;1281;140381;-59
2022/06/22 11:54:53;;;;;;;1.00;0.60;;;;;;;17.93;47.33;98045.08;103086;1281;395407;-59
2022/06/22 11:59:09;;;;;;;1.20;0.80;;;;;;;18.09;47.20;98035.55;100792;1309;545225;-60
2022/06/22 12:02:05;;;;;;;1.60;0.80;;;;;;;18.18;47.53;98030.17;103003;1283;138273;-63
2022/06/22 12:04:41;;;;;;;1.80;1.20;;;;;;;18.32;46.83;98036.06;102218;1294;22978;-63
2022/06/22 12:07:42;;;;;;;2.50;1.20;;;;;;;18.40;46.68;98034.05;102110;1294;23860;-59
2022/06/22 12:10:21;;;;;;;3.40;1.00;;;;;;;18.46;46.46;98035.33;102268;1295;22916;-61
2022/06/22 12:12:56;;;;;;;3.20;0.90;;;;;;;18.46;46.19;98030.66;102322;1291;250580;-61
2022/06/22 12:15:48;;;;;;;5.30;1.20;;;;;;;18.44;46.26;98029.04;102275;1291;137816;-60
2022/06/22 12:18:18;;;;;;;1.40;0.90;;;;;;;18.44;47.17;98034.48;105435;1291;22426;-61
2022/06/22 12:21:02;;;;;;;2.40;1.10;;;;;;;18.42;46.72;98037.33;105579;1290;140169;-60
2022/06/22 12:23:45;;;;;;;1.40;1.00;;;;;;;18.30;46.96;98044.20;105471;1290;24345;-61
2022/06/22 12:26:32;;;;;;;5.00;1.40;;;;;;;18.19;46.00;98048.39;105386;1291;137723;-61
2022/06/22 12:29:36;;;;;;;3.40;0.90;;;;;;;18.10;45.79;98055.90;105377;1290;22448;-61
2022/06/22 12:32:13;;;;;;;0.90;0.90;;;;;;;18.04;46.29;98057.17;105489;1292;137734;-60
2022/06/22 12:34:44;;;;;;;3.40;0.90;;;;;;;18.00;46.10;98054.45;105313;1288;23888;-59
2022/06/22 12:37:24;;;;;;;3.30;1.70;;;;;;;17.96;46.45;98057.02;106078;1287;23440;-60